createdAt,value
2023-03-31T00:00:21.314Z,13.93
2023-03-31T00:02:49.342Z,13.81
2023-03-31T00:05:18.383Z,13.61
2023-03-31T00:07:46.329Z,13.82
2023-03-31T00:10:18.317Z,13.73
2023-03-31T00:12:46.214Z,13.57
2023-03-31T00:15:13.772Z,12.97
2023-03-31T00:17:40.734Z,13.14
2023-03-31T00:20:12.706Z,13.49
2023-03-31T00:22:42.607Z,13.43
2023-03-31T00:25:13.755Z,13.58
2023-03-31T00:27:44.488Z,13.93
2023-03-31T00:30:14.011Z,12.87
2023-03-31T00:32:41.067Z,13.24
2023-03-31T00:35:09.139Z,12.86
2023-03-31T00:37:36.330Z,13.84
2023-03-31T00:40:10.084Z,13.38
2023-03-31T00:42:44.121Z,13.63
2023-03-31T00:45:14.184Z,13.46
2023-03-31T00:47:55.403Z,13.34
2023-03-31T00:50:29.458Z,12.91
2023-03-31T00:53:01.512Z,13.08
2023-03-31T00:55:34.949Z,13.27
2023-03-31T00:58:04.879Z,13.53
2023-03-31T01:00:32.090Z,13.36
2023-03-31T01:03:07.104Z,12.64
2023-03-31T01:05:48.109Z,12.66
2023-03-31T01:08:16.581Z,13.53
2023-03-31T01:10:51.499Z,13.57
2023-03-31T01:13:20.250Z,13.64
2023-03-31T01:15:47.465Z,13.70
2023-03-31T01:18:16.627Z,13.75
2023-03-31T01:20:55.988Z,12.85
2023-03-31T01:23:51.191Z,13.39
2023-03-31T01:27:01.453Z,13.31
2023-03-31T01:29:28.374Z,13.51
2023-03-31T01:32:20.171Z,13.74
2023-03-31T01:34:56.294Z,13.62
2023-03-31T01:38:01.331Z,13.68
2023-03-31T01:40:59.269Z,13.23
2023-03-31T01:44:08.452Z,12.88
2023-03-31T01:46:53.946Z,12.09
2023-03-31T01:49:26.943Z,12.54
2023-03-31T01:52:12.898Z,13.12
2023-03-31T01:55:10.892Z,13.21
2023-03-31T01:57:42.936Z,12.56
2023-03-31T02:00:26.318Z,12.34
2023-03-31T02:03:06.340Z,12.90
2023-03-31T02:05:38.599Z,13.03
2023-03-31T02:08:45.974Z,12.92
2023-03-31T02:11:14.183Z,12.83
2023-03-31T02:13:44.869Z,12.05
2023-03-31T02:16:19.244Z,12.44
2023-03-31T02:18:50.304Z,12.58
2023-03-31T02:21:18.025Z,12.69
2023-03-31T02:23:46.101Z,12.90
2023-03-31T02:26:30.171Z,10.79
2023-03-31T02:28:58.136Z,10.85
2023-03-31T02:31:42.265Z,11.90
2023-03-31T02:34:09.451Z,11.36
2023-03-31T02:36:37.072Z,11.27
2023-03-31T02:39:10.100Z,12.02
2023-03-31T02:41:37.631Z,12.03
2023-03-31T02:44:04.849Z,11.54
2023-03-31T02:46:32.675Z,11.92
2023-03-31T02:49:03.109Z,12.21
2023-03-31T02:51:38.065Z,12.23
2023-03-31T02:54:23.313Z,12.31
2023-03-31T02:57:07.412Z,12.40
2023-03-31T02:59:37.277Z,12.24
2023-03-31T03:02:22.896Z,11.95
2023-03-31T03:05:06.700Z,11.98
2023-03-31T03:08:11.827Z,11.92
2023-03-31T03:10:53.826Z,11.82
2023-03-31T03:13:33.673Z,12.34
2023-03-31T03:16:03.396Z,12.15
2023-03-31T03:18:30.501Z,12.18
2023-03-31T03:20:57.550Z,12.35
2023-03-31T03:23:25.861Z,12.40
2023-03-31T03:25:52.843Z,12.36
2023-03-31T03:28:20.284Z,12.55
2023-03-31T03:30:47.530Z,12.60
2023-03-31T03:33:17.245Z,11.68
2023-03-31T03:35:44.311Z,11.52
2023-03-31T03:38:11.351Z,12.15
2023-03-31T03:40:38.434Z,12.07
2023-03-31T03:43:05.514Z,11.28
2023-03-31T03:45:32.470Z,11.01
2023-03-31T03:47:59.486Z,11.03
2023-03-31T03:50:26.488Z,10.97
2023-03-31T03:52:53.468Z,10.71
2023-03-31T03:55:20.395Z,11.02
2023-03-31T03:57:47.314Z,10.41
2023-03-31T04:00:14.416Z,9.41
2023-03-31T04:02:41.537Z,10.02
2023-03-31T04:05:09.170Z,10.10
2023-03-31T04:07:36.109Z,9.78
2023-03-31T04:10:03.036Z,10.22
2023-03-31T04:12:30.172Z,10.13
2023-03-31T04:14:57.087Z,10.36
2023-03-31T04:17:33.381Z,9.98
2023-03-31T04:20:06.307Z,10.13
2023-03-31T04:22:40.913Z,10.28
2023-03-31T04:25:20.049Z,10.22
2023-03-31T04:27:55.158Z,9.56
2023-03-31T04:30:24.120Z,9.97
2023-03-31T04:32:53.692Z,9.95
2023-03-31T04:35:22.438Z,9.37
2023-03-31T04:37:59.335Z,10.12
2023-03-31T04:40:26.937Z,9.95
2023-03-31T04:42:53.899Z,9.65
2023-03-31T04:45:20.952Z,9.85
2023-03-31T04:47:48.202Z,10.13
2023-03-31T04:50:17.197Z,10.08
2023-03-31T04:52:45.650Z,10.41
2023-03-31T04:55:12.720Z,10.56
2023-03-31T04:57:39.825Z,10.84
2023-03-31T05:00:08.194Z,11.30
2023-03-31T05:02:35.718Z,11.70
2023-03-31T05:05:02.748Z,12.05
2023-03-31T05:07:29.720Z,12.78
2023-03-31T05:09:56.714Z,13.62
2023-03-31T05:12:23.874Z,14.96
2023-03-31T05:14:51.155Z,16.24
2023-03-31T05:17:18.126Z,17.28
2023-03-31T05:19:45.245Z,17.66
2023-03-31T05:22:12.417Z,16.68
2023-03-31T05:24:39.573Z,16.95
2023-03-31T05:27:06.805Z,16.93
2023-03-31T05:29:33.874Z,16.39
2023-03-31T05:32:01.985Z,16.40
2023-03-31T05:34:29.508Z,15.97
2023-03-31T05:36:56.541Z,15.87
2023-03-31T05:39:23.682Z,16.68
2023-03-31T05:41:50.889Z,17.52
2023-03-31T05:44:17.893Z,17.69
2023-03-31T05:46:45.014Z,18.84
2023-03-31T05:49:12.224Z,19.21
2023-03-31T05:51:53.473Z,19.64
2023-03-31T05:54:20.604Z,19.85
2023-03-31T05:56:47.762Z,20.26
2023-03-31T05:59:15.321Z,21.87
2023-03-31T06:01:50.215Z,22.71
2023-03-31T06:04:19.016Z,22.71
2023-03-31T06:06:46.515Z,23.34
2023-03-31T06:09:19.024Z,24.37
2023-03-31T06:12:38.829Z,25.24
2023-03-31T06:15:08.820Z,25.85
2023-03-31T06:17:38.406Z,26.21
2023-03-31T06:20:19.687Z,26.83
2023-03-31T06:22:54.080Z,27.38
2023-03-31T06:25:55.396Z,27.51
2023-03-31T06:37:17.362Z,25.92
2023-03-31T06:40:25.094Z,25.63
2023-03-31T07:01:15.698Z,26.54
2023-03-31T07:03:42.852Z,26.32
2023-03-31T07:06:10.102Z,26.32
2023-03-31T07:08:37.330Z,26.15
2023-03-31T07:11:04.872Z,26.28
2023-03-31T07:13:33.376Z,26.58
2023-03-31T07:16:00.609Z,26.42
2023-03-31T07:18:34.965Z,26.33
2023-03-31T07:21:09.085Z,25.66
2023-03-31T07:23:37.739Z,26.19
2023-03-31T07:26:04.888Z,26.71
2023-03-31T07:28:33.110Z,26.80
2023-03-31T07:31:00.421Z,27.24
2023-03-31T07:33:27.470Z,27.65
2023-03-31T07:36:10.632Z,27.81
2023-03-31T07:38:39.759Z,27.54
2023-03-31T07:41:10.356Z,27.28
2023-03-31T07:43:39.529Z,27.42
2023-03-31T07:46:08.817Z,27.62
2023-03-31T07:48:36.226Z,27.62
2023-03-31T07:51:03.899Z,27.67
2023-03-31T07:53:31.370Z,27.48
2023-03-31T07:55:58.677Z,27.18
2023-03-31T07:58:25.918Z,26.90
2023-03-31T08:00:53.130Z,25.91
2023-03-31T08:03:20.224Z,23.57
2023-03-31T08:05:52.726Z,20.82
2023-03-31T08:08:21.341Z,21.18
2023-03-31T08:10:49.192Z,20.46
2023-03-31T08:13:16.310Z,21.45
2023-03-31T08:15:43.367Z,21.63
2023-03-31T08:18:10.707Z,22.53
2023-03-31T08:20:39.708Z,23.15
2023-03-31T08:23:13.608Z,23.92
2023-03-31T08:25:47.750Z,24.34
2023-03-31T08:28:14.902Z,24.76
2023-03-31T08:30:42.412Z,25.31
2023-03-31T08:33:09.797Z,25.65
2023-03-31T08:35:39.319Z,25.83
2023-03-31T08:38:06.181Z,25.81
2023-03-31T08:40:33.802Z,26.03
2023-03-31T08:43:10.671Z,26.36
2023-03-31T08:45:43.960Z,26.30
2023-03-31T08:48:35.034Z,26.15
2023-03-31T08:51:12.814Z,26.07
2023-03-31T08:53:46.045Z,26.18
2023-03-31T08:56:23.002Z,26.18
2023-03-31T08:58:51.920Z,26.22
2023-03-31T09:01:56.296Z,26.43
2023-03-31T09:04:43.476Z,26.73
2023-03-31T09:07:29.371Z,26.99
2023-03-31T09:10:28.689Z,26.88
2023-03-31T09:13:02.792Z,27.10
2023-03-31T09:15:35.552Z,27.22
2023-03-31T09:18:34.805Z,27.36
2023-03-31T09:21:32.552Z,26.96
2023-03-31T09:24:20.597Z,27.15
2023-03-31T09:27:00.215Z,27.15
2023-03-31T09:29:51.681Z,27.03
2023-03-31T09:32:21.816Z,27.50
2023-03-31T09:35:00.795Z,27.46
2023-03-31T09:37:33.192Z,27.74
2023-03-31T09:40:08.480Z,27.84
2023-03-31T09:42:37.006Z,27.69
2023-03-31T09:45:06.097Z,27.58
2023-03-31T09:47:44.777Z,28.08
2023-03-31T09:50:25.340Z,28.11
2023-03-31T09:53:01.094Z,28.34
2023-03-31T09:55:53.006Z,28.17
2023-03-31T09:59:00.615Z,28.53
2023-03-31T10:01:29.711Z,28.69
2023-03-31T10:04:00.260Z,28.89
2023-03-31T10:07:17.594Z,28.39
2023-03-31T10:09:43.086Z,28.66
2023-03-31T10:12:17.916Z,29.06
2023-03-31T10:14:48.069Z,29.11
2023-03-31T10:17:21.260Z,29.10
2023-03-31T10:19:51.885Z,28.77
2023-03-31T10:22:23.885Z,29.18
2023-03-31T10:24:54.075Z,29.34
2023-03-31T10:27:32.366Z,29.49
2023-03-31T10:30:02.255Z,29.58
2023-03-31T10:32:31.938Z,29.90
2023-03-31T10:35:14.882Z,29.77
2023-03-31T10:37:44.033Z,29.58
2023-03-31T10:40:34.952Z,29.61
2023-03-31T10:43:11.279Z,29.30
2023-03-31T10:45:45.019Z,29.30
2023-03-31T10:48:28.043Z,29.72
2023-03-31T10:51:15.712Z,28.66
2023-03-31T10:53:45.589Z,29.23
2023-03-31T10:56:20.549Z,29.37
2023-03-31T10:59:06.051Z,29.18
2023-03-31T11:02:06.179Z,29.67
2023-03-31T11:04:45.078Z,29.58
2023-03-31T11:07:39.193Z,29.25
2023-03-31T11:10:39.641Z,29.34
2023-03-31T11:13:42.481Z,28.98
2023-03-31T11:16:31.014Z,28.76
2023-03-31T11:19:48.399Z,28.93
2023-03-31T11:22:52.962Z,28.74
2023-03-31T11:25:38.919Z,28.64
2023-03-31T11:28:23.557Z,28.71
2023-03-31T11:30:56.692Z,27.59
2023-03-31T11:33:46.899Z,27.88
2023-03-31T11:36:20.598Z,27.77
2023-03-31T11:39:15.314Z,27.12
2023-03-31T11:41:59.998Z,27.23
2023-03-31T11:44:36.908Z,27.66
2023-03-31T11:47:11.158Z,26.95
2023-03-31T11:50:12.095Z,26.86
2023-03-31T11:52:43.899Z,27.15
2023-03-31T11:55:32.771Z,26.67
2023-03-31T11:58:06.128Z,26.18
2023-03-31T12:01:05.047Z,26.15
2023-03-31T12:03:37.837Z,26.19
2023-03-31T12:06:20.549Z,26.40
2023-03-31T12:09:26.270Z,26.91
2023-03-31T12:12:25.063Z,26.27
2023-03-31T12:15:08.383Z,25.73
2023-03-31T12:17:46.643Z,25.34
2023-03-31T12:20:44.033Z,25.23
2023-03-31T12:23:29.138Z,25.05
2023-03-31T12:26:48.910Z,24.87
2023-03-31T12:29:55.609Z,25.06
2023-03-31T12:32:28.272Z,24.52
2023-03-31T12:35:25.679Z,24.09
2023-03-31T12:37:55.953Z,24.00
2023-03-31T12:40:59.529Z,24.34
2023-03-31T12:44:05.146Z,24.25
2023-03-31T12:47:14.675Z,24.11
2023-03-31T12:49:52.570Z,24.02
2023-03-31T12:52:43.222Z,23.55
2023-03-31T12:55:35.534Z,23.67
2023-03-31T12:58:31.893Z,23.29
2023-03-31T13:01:16.607Z,22.71
2023-03-31T13:04:19.056Z,22.69
2023-03-31T13:06:55.822Z,22.10
2023-03-31T13:09:45.326Z,21.85
2023-03-31T13:12:30.388Z,21.36
2023-03-31T13:15:32.856Z,21.41
2023-03-31T13:18:12.450Z,21.17
2023-03-31T13:20:43.174Z,21.07
2023-03-31T13:23:27.120Z,20.94
2023-03-31T13:25:56.234Z,21.17
2023-03-31T13:28:30.703Z,21.25
2023-03-31T13:31:09.344Z,20.98
2023-03-31T13:33:46.262Z,20.62
2023-03-31T13:36:45.702Z,20.51
2023-03-31T13:42:16.493Z,20.85
2023-03-31T13:44:57.903Z,20.45
2023-03-31T13:47:56.756Z,20.46
2023-03-31T13:51:16.094Z,20.50
2023-03-31T13:54:36.691Z,20.85
2023-03-31T13:57:43.081Z,21.09
2023-03-31T14:00:17.326Z,21.31
2023-03-31T14:02:53.816Z,21.45
2023-03-31T14:05:34.343Z,21.41
2023-03-31T14:08:15.070Z,21.51
2023-03-31T14:10:43.342Z,21.23
2023-03-31T14:13:19.671Z,21.39
2023-03-31T14:15:51.950Z,21.19
2023-03-31T14:18:30.872Z,21.55
2023-03-31T14:21:28.990Z,21.33
2023-03-31T14:24:22.389Z,21.50
2023-03-31T14:29:47.308Z,21.22
2023-03-31T14:32:26.690Z,20.69
2023-03-31T14:34:58.813Z,20.85
2023-03-31T14:37:28.365Z,20.61
2023-03-31T14:39:57.684Z,20.78
2023-03-31T14:42:30.125Z,20.51
2023-03-31T14:45:25.234Z,20.64
2023-03-31T14:47:56.333Z,19.89
2023-03-31T14:50:29.971Z,20.15
2023-03-31T14:52:57.358Z,20.25
2023-03-31T14:55:35.630Z,20.25
2023-03-31T14:58:18.639Z,20.23
2023-03-31T15:00:45.830Z,20.29
2023-03-31T15:03:15.782Z,19.73
2023-03-31T15:05:44.660Z,19.73
2023-03-31T15:08:15.974Z,19.85
2023-03-31T15:10:54.060Z,19.77
2023-03-31T15:13:39.703Z,19.92
2023-03-31T15:16:35.234Z,19.59
2023-03-31T15:19:12.615Z,19.72
2023-03-31T15:21:39.599Z,19.57
2023-03-31T15:24:08.139Z,19.26
2023-03-31T15:26:41.671Z,19.52
2023-03-31T15:29:20.820Z,19.51
2023-03-31T15:31:48.638Z,19.16
2023-03-31T15:34:27.417Z,19.07
2023-03-31T15:36:57.103Z,19.17
2023-03-31T15:39:25.094Z,19.29
2023-03-31T15:41:53.030Z,19.12
2023-03-31T15:44:44.043Z,19.33
2023-03-31T15:47:17.844Z,19.40
2023-03-31T15:49:50.867Z,19.57
2023-03-31T15:52:23.358Z,19.79
2023-03-31T15:54:50.550Z,19.63
2023-03-31T15:57:20.018Z,19.12
2023-03-31T15:59:56.684Z,19.01
2023-03-31T16:02:27.317Z,19.36
2023-03-31T16:04:58.748Z,19.54
2023-03-31T16:07:30.312Z,19.37
2023-03-31T16:10:33.698Z,19.43
2023-03-31T16:13:06.721Z,19.47
2023-03-31T16:15:38.709Z,19.42
2023-03-31T16:18:31.491Z,19.04
2023-03-31T16:21:02.446Z,19.19
2023-03-31T16:23:32.687Z,19.22
2023-03-31T16:26:01.346Z,19.30
2023-03-31T16:28:32.658Z,19.38
2023-03-31T16:31:02.168Z,19.31
2023-03-31T16:33:31.580Z,19.24
2023-03-31T16:35:59.491Z,18.89
2023-03-31T16:38:30.465Z,19.13
2023-03-31T16:40:59.405Z,18.56
2023-03-31T16:43:29.328Z,18.71
2023-03-31T16:45:58.829Z,18.86
2023-03-31T16:48:28.641Z,18.97
2023-03-31T16:50:57.957Z,19.14
2023-03-31T16:53:30.049Z,18.88
2023-03-31T16:55:57.576Z,18.83
2023-03-31T16:58:26.456Z,18.89
2023-03-31T17:00:54.109Z,18.39
2023-03-31T17:03:22.162Z,18.66
2023-03-31T17:05:53.122Z,18.80
2023-03-31T17:08:22.028Z,18.89
2023-03-31T17:11:04.664Z,18.60
2023-03-31T17:13:32.776Z,18.55
2023-03-31T17:16:13.540Z,18.31
2023-03-31T17:18:46.248Z,18.47
2023-03-31T17:21:15.171Z,18.25
2023-03-31T17:23:44.826Z,18.22
2023-03-31T17:26:14.600Z,18.19
2023-03-31T17:28:41.882Z,18.23
2023-03-31T17:31:17.761Z,18.53
2023-03-31T17:33:45.189Z,18.21
2023-03-31T17:36:12.549Z,18.24
2023-03-31T17:38:40.141Z,18.32
2023-03-31T17:41:09.547Z,18.41
2023-03-31T17:43:38.426Z,18.56
2023-03-31T17:46:09.911Z,18.50
2023-03-31T17:48:38.883Z,17.96
2023-03-31T17:51:13.902Z,17.88
2023-03-31T17:53:42.620Z,18.17
2023-03-31T17:56:09.832Z,18.22
2023-03-31T17:58:37.023Z,17.93
2023-03-31T18:01:06.129Z,18.19
2023-03-31T18:03:33.593Z,18.33
2023-03-31T18:06:08.533Z,18.34
2023-03-31T18:08:36.379Z,18.23
2023-03-31T18:11:05.438Z,18.03
2023-03-31T18:13:33.841Z,18.19
2023-03-31T18:16:00.838Z,17.72
2023-03-31T18:18:31.270Z,17.63
2023-03-31T18:20:58.241Z,17.78
2023-03-31T18:23:25.218Z,17.62
2023-03-31T18:25:53.014Z,16.68
2023-03-31T18:28:21.102Z,16.25
2023-03-31T18:30:48.311Z,14.48
2023-03-31T18:33:15.592Z,13.85
2023-03-31T18:35:43.099Z,14.02
2023-03-31T18:38:10.268Z,13.95
2023-03-31T18:40:37.953Z,13.97
2023-03-31T18:43:06.168Z,13.73
2023-03-31T18:45:33.237Z,13.42
2023-03-31T18:48:00.548Z,13.28
2023-03-31T18:50:27.537Z,12.52
2023-03-31T18:52:54.898Z,13.16
2023-03-31T18:55:22.441Z,13.71
2023-03-31T18:57:49.731Z,13.95
2023-03-31T19:00:17.451Z,14.25
2023-03-31T19:02:44.793Z,14.38
2023-03-31T19:05:12.553Z,13.96
2023-03-31T19:07:40.911Z,13.99
2023-03-31T19:10:08.545Z,14.16
2023-03-31T19:12:35.444Z,13.97
2023-03-31T19:15:02.564Z,14.26
2023-03-31T19:17:29.701Z,14.41
2023-03-31T19:19:56.999Z,14.79
2023-03-31T19:22:25.481Z,14.90
2023-03-31T19:24:52.593Z,15.06
2023-03-31T19:27:19.553Z,15.01
2023-03-31T19:29:46.678Z,15.03
2023-03-31T19:32:13.678Z,15.45
2023-03-31T19:34:40.708Z,15.39
2023-03-31T19:37:07.782Z,15.30
2023-03-31T19:39:34.821Z,15.50
2023-03-31T19:42:02.894Z,15.44
2023-03-31T19:44:29.870Z,15.43
2023-03-31T19:46:58.824Z,15.60
2023-03-31T19:49:26.059Z,15.55
2023-03-31T19:51:53.134Z,15.61
2023-03-31T19:54:20.122Z,15.76
2023-03-31T19:56:47.679Z,15.68
2023-03-31T19:59:14.777Z,15.75
2023-03-31T20:01:41.820Z,15.78
2023-03-31T20:04:09.014Z,15.45
2023-03-31T20:06:37.342Z,15.51
2023-03-31T20:09:25.674Z,15.54
2023-03-31T20:12:12.718Z,15.65
2023-03-31T20:14:39.850Z,15.57
2023-03-31T20:17:07.734Z,15.50
2023-03-31T20:19:35.281Z,15.57
2023-03-31T20:22:02.661Z,15.25
2023-03-31T20:24:30.046Z,15.37
2023-03-31T20:27:14.365Z,15.47
2023-03-31T20:29:43.993Z,15.63
2023-03-31T20:32:10.868Z,15.50
2023-03-31T20:34:38.183Z,15.55
2023-03-31T20:37:05.105Z,15.52
2023-03-31T20:39:32.360Z,15.51
2023-03-31T20:41:59.306Z,15.45
2023-03-31T20:44:26.733Z,15.47
2023-03-31T20:46:55.120Z,15.58
2023-03-31T20:49:22.059Z,15.57
2023-03-31T20:51:49.266Z,15.72
2023-03-31T20:54:16.333Z,15.11
2023-03-31T20:56:43.466Z,14.98
2023-03-31T20:59:13.172Z,14.75
2023-03-31T21:01:42.775Z,13.53
2023-03-31T21:04:11.304Z,13.29
2023-03-31T21:06:43.917Z,13.27
2023-03-31T21:09:12.466Z,13.79
2023-03-31T21:11:40.922Z,13.83
2023-03-31T21:14:11.481Z,13.97
2023-03-31T21:16:38.455Z,14.25
2023-03-31T21:19:05.425Z,13.83
2023-03-31T21:21:32.366Z,14.04
2023-03-31T21:23:59.354Z,14.03
2023-03-31T21:26:26.555Z,13.66
2023-03-31T21:28:54.629Z,12.91
2023-03-31T21:31:24.535Z,12.28
2023-03-31T21:33:53.698Z,13.44
2023-03-31T21:36:24.225Z,13.77
2023-03-31T21:38:57.623Z,13.59
2023-03-31T21:41:28.516Z,13.98
2023-03-31T21:43:56.666Z,13.62
2023-03-31T21:46:27.248Z,13.97
2023-03-31T21:48:54.997Z,14.17
2023-03-31T21:51:22.772Z,14.18
2023-03-31T21:53:53.432Z,14.13
2023-03-31T21:56:39.485Z,14.38
2023-03-31T21:59:06.550Z,14.18
2023-03-31T22:01:34.014Z,14.21
2023-03-31T22:04:01.420Z,13.60
2023-03-31T22:06:28.508Z,13.21
2023-03-31T22:08:55.798Z,13.75
2023-03-31T22:11:23.851Z,13.65
2023-03-31T22:13:50.953Z,13.89
2023-03-31T22:16:21.880Z,13.94
2023-03-31T22:18:50.480Z,14.17
2023-03-31T22:21:27.916Z,14.07
2023-03-31T22:23:57.905Z,14.19
2023-03-31T22:26:26.330Z,14.12
2023-03-31T22:28:53.516Z,14.15
2023-03-31T22:31:20.897Z,14.12
2023-03-31T22:33:48.143Z,14.05
2023-03-31T22:36:15.081Z,14.11
2023-03-31T22:38:42.163Z,14.01
2023-03-31T22:41:09.191Z,13.04
2023-03-31T22:43:36.260Z,13.74
2023-03-31T22:46:08.023Z,13.83
2023-03-31T22:48:35.948Z,13.94
2023-03-31T22:51:06.071Z,13.91
2023-03-31T22:53:33.760Z,14.00
2023-03-31T22:56:09.259Z,13.97
2023-03-31T22:58:36.619Z,13.94
2023-03-31T23:01:05.807Z,14.08
2023-03-31T23:03:33.337Z,14.09
2023-03-31T23:06:05.311Z,14.09
2023-03-31T23:08:33.942Z,13.99
2023-03-31T23:11:01.020Z,14.18
2023-03-31T23:13:29.082Z,14.03
2023-03-31T23:15:56.352Z,13.67
2023-03-31T23:18:23.709Z,13.67
2023-03-31T23:20:50.771Z,13.69
2023-03-31T23:23:17.749Z,13.69
2023-03-31T23:25:44.642Z,13.78
2023-03-31T23:28:11.498Z,13.74
2023-03-31T23:30:38.441Z,13.48
2023-03-31T23:33:05.370Z,13.58
2023-03-31T23:35:32.616Z,13.62
2023-03-31T23:37:59.641Z,13.78
2023-03-31T23:40:26.799Z,13.71
2023-03-31T23:42:53.678Z,13.65
2023-03-31T23:45:20.657Z,13.81
2023-03-31T23:47:47.652Z,13.76
2023-03-31T23:50:14.726Z,13.80
2023-03-31T23:52:41.718Z,13.84
2023-03-31T23:55:08.993Z,13.93
2023-03-31T23:57:36.223Z,13.78
